createdAt,value
2022-11-09T00:00:04.090Z,7.15
2022-11-09T00:00:34.618Z,7.23
2022-11-09T00:01:05.597Z,7.66
2022-11-09T00:01:36.535Z,7.75
2022-11-09T00:02:07.428Z,7.98
2022-11-09T00:02:43.722Z,8.03
2022-11-09T00:03:10.040Z,7.98
2022-11-09T00:03:39.547Z,8.03
2022-11-09T00:04:10.525Z,8.34
2022-11-09T00:04:40.982Z,8.55
2022-11-09T00:05:12.082Z,8.51
2022-11-09T00:05:42.587Z,8.71
2022-11-09T00:06:13.085Z,8.48
2022-11-09T00:06:44.070Z,9.00
2022-11-09T00:07:14.700Z,9.25
2022-11-09T00:07:45.424Z,9.32
2022-11-09T00:08:15.934Z,9.44
2022-11-09T00:08:46.434Z,9.56
2022-11-09T00:09:17.412Z,9.58
2022-11-09T00:09:47.968Z,9.54
2022-11-09T00:10:18.430Z,9.72
2022-11-09T00:10:49.636Z,9.95
2022-11-09T00:11:20.131Z,9.50
2022-11-09T00:11:51.057Z,9.76
2022-11-09T00:12:21.987Z,9.99
2022-11-09T00:12:52.878Z,9.73
2022-11-09T00:13:23.889Z,9.65
2022-11-09T00:13:55.018Z,9.82
2022-11-09T00:14:25.521Z,9.66
2022-11-09T00:14:56.529Z,9.61
2022-11-09T00:15:26.948Z,9.41
2022-11-09T00:15:57.842Z,9.34
2022-11-09T00:16:28.832Z,9.23
2022-11-09T00:17:00.077Z,9.22
2022-11-09T00:17:30.616Z,9.10
2022-11-09T00:18:01.129Z,8.97
2022-11-09T00:18:31.571Z,8.85
2022-11-09T00:19:02.496Z,9.03
2022-11-09T00:19:33.443Z,8.97
2022-11-09T00:20:04.655Z,9.08
2022-11-09T00:20:35.171Z,9.28
2022-11-09T00:21:05.676Z,9.58
2022-11-09T00:21:36.163Z,9.50
2022-11-09T00:22:07.159Z,9.46
2022-11-09T00:22:38.158Z,9.46
2022-11-09T00:23:09.288Z,9.14
2022-11-09T00:23:39.813Z,9.10
2022-11-09T00:24:10.326Z,8.97
2022-11-09T00:24:41.259Z,9.14
2022-11-09T00:25:12.182Z,8.74
2022-11-09T00:25:43.137Z,8.84
2022-11-09T00:26:14.261Z,8.67
2022-11-09T00:26:44.760Z,8.89
2022-11-09T00:27:17.829Z,8.56
2022-11-09T00:27:45.901Z,8.41
2022-11-09T00:28:16.818Z,8.91
2022-11-09T00:28:47.753Z,8.51
2022-11-09T00:29:18.877Z,8.48
2022-11-09T00:29:49.380Z,8.30
2022-11-09T00:30:20.283Z,8.49
2022-11-09T00:30:51.209Z,8.56
2022-11-09T00:31:22.138Z,8.45
2022-11-09T00:31:53.136Z,8.33
2022-11-09T00:32:27.582Z,8.10
2022-11-09T00:32:54.520Z,8.16
2022-11-09T00:33:25.453Z,8.20
2022-11-09T00:33:56.461Z,8.23
2022-11-09T00:34:26.980Z,7.94
2022-11-09T00:34:57.905Z,8.00
2022-11-09T00:35:29.019Z,7.58
2022-11-09T00:35:59.526Z,7.94
2022-11-09T00:36:30.451Z,7.66
2022-11-09T00:37:01.417Z,7.90
2022-11-09T00:37:32.486Z,7.61
2022-11-09T00:38:03.060Z,7.43
2022-11-09T00:38:33.742Z,7.50
2022-11-09T00:39:04.266Z,7.45
2022-11-09T00:39:34.701Z,7.42
2022-11-09T00:40:05.638Z,7.38
2022-11-09T00:40:36.571Z,7.29
2022-11-09T00:41:07.503Z,7.13
2022-11-09T00:41:38.619Z,7.15
2022-11-09T00:42:09.252Z,6.92
2022-11-09T00:42:39.759Z,7.15
2022-11-09T00:43:10.682Z,7.31
2022-11-09T00:43:41.613Z,7.14
2022-11-09T00:44:12.135Z,6.93
2022-11-09T00:44:43.007Z,6.93
2022-11-09T00:45:13.511Z,7.02
2022-11-09T00:45:44.438Z,6.85
2022-11-09T00:46:15.463Z,6.99
2022-11-09T00:46:46.283Z,6.88
2022-11-09T00:47:17.244Z,7.10
2022-11-09T00:47:48.413Z,6.87
2022-11-09T00:48:18.923Z,6.93
2022-11-09T00:48:49.374Z,7.06
2022-11-09T00:49:20.324Z,7.02
2022-11-09T00:49:51.240Z,6.99
2022-11-09T00:50:22.161Z,6.69
2022-11-09T00:50:53.297Z,6.87
2022-11-09T00:51:23.802Z,7.05
2022-11-09T00:51:54.734Z,6.77
2022-11-09T00:52:25.695Z,6.93
2022-11-09T00:52:56.615Z,6.44
2022-11-09T00:53:27.618Z,6.81
2022-11-09T00:53:58.734Z,6.87
2022-11-09T00:54:29.235Z,6.57
2022-11-09T00:55:00.226Z,6.82
2022-11-09T00:55:31.160Z,6.70
2022-11-09T00:56:02.169Z,6.78
2022-11-09T00:57:54.354Z,7.13
2022-11-09T00:58:25.276Z,6.67
2022-11-09T00:58:56.202Z,6.96
2022-11-09T00:59:27.116Z,7.07
2022-11-09T00:59:58.035Z,6.70
2022-11-09T01:00:29.154Z,7.11
2022-11-09T01:00:59.720Z,6.81
2022-11-09T01:01:30.314Z,7.06
2022-11-09T01:02:00.806Z,7.06
2022-11-09T01:02:31.829Z,7.10
2022-11-09T01:03:02.283Z,7.00
2022-11-09T01:03:33.472Z,6.93
2022-11-09T01:04:03.969Z,6.78
2022-11-09T01:04:34.462Z,6.81
2022-11-09T01:05:05.382Z,7.02
2022-11-09T01:05:36.312Z,6.87
2022-11-09T01:06:07.253Z,6.78
2022-11-09T01:06:38.410Z,7.02
2022-11-09T01:07:08.971Z,6.79
2022-11-09T01:07:39.521Z,7.05
2022-11-09T01:08:09.934Z,6.87
2022-11-09T01:08:40.862Z,6.93
2022-11-09T01:09:11.770Z,6.75
2022-11-09T01:09:42.896Z,7.07
2022-11-09T01:10:13.394Z,6.63
2022-11-09T01:10:44.369Z,6.92
2022-11-09T01:11:15.285Z,7.13
2022-11-09T01:11:46.264Z,6.95
2022-11-09T01:12:17.248Z,6.96
2022-11-09T01:12:47.948Z,7.00
2022-11-09T01:13:18.915Z,6.63
2022-11-09T01:13:49.038Z,6.89
2022-11-09T01:14:20.054Z,6.75
2022-11-09T01:14:50.953Z,7.03
2022-11-09T01:15:21.904Z,6.99
2022-11-09T01:15:53.030Z,6.95
2022-11-09T01:16:23.532Z,7.11
2022-11-09T01:16:54.454Z,7.02
2022-11-09T01:17:25.390Z,7.05
2022-11-09T01:17:56.424Z,6.99
2022-11-09T01:18:26.909Z,6.88
2022-11-09T01:18:57.554Z,7.05
2022-11-09T01:19:28.081Z,6.97
2022-11-09T01:19:58.572Z,7.32
2022-11-09T01:20:29.087Z,7.05
2022-11-09T01:21:00.027Z,7.02
2022-11-09T01:21:30.941Z,7.20
2022-11-09T01:22:02.149Z,7.00
2022-11-09T01:22:32.668Z,6.88
2022-11-09T01:23:03.175Z,6.87
2022-11-09T01:23:33.688Z,6.79
2022-11-09T01:24:04.143Z,6.84
2022-11-09T01:24:35.080Z,6.57
2022-11-09T01:25:06.195Z,6.56
2022-11-09T01:25:36.704Z,6.72
2022-11-09T01:26:07.202Z,6.64
2022-11-09T01:26:38.133Z,6.48
2022-11-09T01:27:09.063Z,6.84
2022-11-09T01:27:39.990Z,6.67
2022-11-09T01:28:11.175Z,6.85
2022-11-09T01:28:41.631Z,6.59
2022-11-09T01:29:12.629Z,6.63
2022-11-09T01:29:43.573Z,6.41
2022-11-09T01:30:14.577Z,6.74
2022-11-09T01:30:45.067Z,6.46
2022-11-09T01:31:16.203Z,6.70
2022-11-09T01:31:46.695Z,6.62
2022-11-09T01:32:17.634Z,6.69
2022-11-09T01:32:48.558Z,6.79
2022-11-09T01:33:19.744Z,6.36
2022-11-09T01:33:50.432Z,6.74
2022-11-09T01:34:21.569Z,6.60
2022-11-09T01:34:52.077Z,6.77
2022-11-09T01:35:22.571Z,6.52
2022-11-09T01:35:53.491Z,6.38
2022-11-09T01:36:24.403Z,6.57
2022-11-09T01:36:55.395Z,6.54
2022-11-09T01:37:26.085Z,6.77
2022-11-09T01:37:56.594Z,6.81
2022-11-09T01:38:27.568Z,6.56
2022-11-09T01:38:58.505Z,6.72
2022-11-09T01:39:29.441Z,6.81
2022-11-09T01:40:00.371Z,7.00
2022-11-09T01:40:31.494Z,6.82
2022-11-09T01:41:01.999Z,6.49
2022-11-09T01:41:32.892Z,6.75
2022-11-09T01:42:03.812Z,6.67
2022-11-09T01:42:34.731Z,6.64
2022-11-09T01:43:05.657Z,6.81
2022-11-09T01:43:36.865Z,6.92
2022-11-09T01:44:07.309Z,6.92
2022-11-09T01:44:38.240Z,6.88
2022-11-09T01:45:09.160Z,6.75
2022-11-09T01:45:40.177Z,6.84
2022-11-09T01:46:11.098Z,6.72
2022-11-09T01:46:42.189Z,6.84
2022-11-09T01:47:12.702Z,6.92
2022-11-09T01:47:43.142Z,6.62
2022-11-09T01:48:14.082Z,6.49
2022-11-09T01:48:45.063Z,6.64
2022-11-09T01:49:16.001Z,6.45
2022-11-09T01:49:47.204Z,6.57
2022-11-09T01:50:17.943Z,6.57
2022-11-09T01:50:48.858Z,6.75
2022-11-09T01:51:19.754Z,6.96
2022-11-09T01:51:50.763Z,6.56
2022-11-09T01:52:21.689Z,6.44
2022-11-09T01:52:52.806Z,6.66
2022-11-09T01:53:23.281Z,6.60
2022-11-09T01:53:54.254Z,6.59
2022-11-09T01:54:25.191Z,6.52
2022-11-09T01:54:56.086Z,6.64
2022-11-09T01:55:27.003Z,6.63
2022-11-09T01:55:58.137Z,6.46
2022-11-09T01:56:28.643Z,6.59
2022-11-09T01:56:59.562Z,6.54
2022-11-09T01:57:30.490Z,6.60
2022-11-09T01:58:01.427Z,6.16
2022-11-09T01:58:32.343Z,6.81
2022-11-09T01:59:03.520Z,6.31
2022-11-09T01:59:33.933Z,6.54
2022-11-09T02:00:04.877Z,6.45
2022-11-09T02:00:35.810Z,6.72
2022-11-09T02:01:06.832Z,6.52
2022-11-09T02:01:37.334Z,6.70
2022-11-09T02:02:08.080Z,6.41
2022-11-09T02:02:38.588Z,6.60
2022-11-09T02:03:09.526Z,6.52
2022-11-09T02:03:40.466Z,6.33
2022-11-09T02:04:11.440Z,6.33
2022-11-09T02:04:41.916Z,6.39
2022-11-09T02:05:13.024Z,6.31
2022-11-09T02:05:43.505Z,6.54
2022-11-09T02:06:14.436Z,6.17
2022-11-09T02:06:45.447Z,6.45
2022-11-09T02:07:15.944Z,6.38
2022-11-09T02:07:46.468Z,6.01
2022-11-09T02:08:17.571Z,6.11
2022-11-09T02:08:48.082Z,6.24
2022-11-09T02:09:19.104Z,5.99
2022-11-09T02:09:49.640Z,6.08
2022-11-09T02:10:20.104Z,6.05
2022-11-09T02:10:51.048Z,6.07
2022-11-09T02:11:22.165Z,6.14
2022-11-09T02:11:52.697Z,6.20
2022-11-09T02:12:23.606Z,5.89
2022-11-09T02:12:54.526Z,6.09
2022-11-09T02:13:25.456Z,5.80
2022-11-09T02:13:56.383Z,6.05
2022-11-09T02:14:27.573Z,5.86
2022-11-09T02:14:58.066Z,6.14
2022-11-09T02:15:29.038Z,5.84
2022-11-09T02:15:59.977Z,6.07
2022-11-09T02:16:30.959Z,6.20
2022-11-09T02:17:01.897Z,6.20
2022-11-09T02:17:33.005Z,6.08
2022-11-09T02:18:03.512Z,5.93
2022-11-09T02:18:34.447Z,5.90
2022-11-09T02:19:05.357Z,6.12
2022-11-09T02:19:36.364Z,6.04
2022-11-09T02:20:07.424Z,6.08
2022-11-09T02:20:38.040Z,5.68
2022-11-09T02:21:08.532Z,5.80
2022-11-09T02:21:39.442Z,5.79
2022-11-09T02:22:10.372Z,5.64
2022-11-09T02:22:41.351Z,5.59
2022-11-09T02:23:12.272Z,5.82
2022-11-09T02:23:43.400Z,5.69
2022-11-09T02:24:13.882Z,5.83
2022-11-09T02:24:44.919Z,6.16
2022-11-09T02:25:15.337Z,5.99
2022-11-09T02:25:46.293Z,6.11
2022-11-09T02:26:17.215Z,5.72
2022-11-09T02:26:48.335Z,5.82
2022-11-09T02:27:18.818Z,5.80
2022-11-09T02:27:49.735Z,5.97
2022-11-09T02:28:20.728Z,5.86
2022-11-09T02:28:51.274Z,5.94
2022-11-09T02:29:22.209Z,5.76
2022-11-09T02:29:53.420Z,6.07
2022-11-09T02:30:23.842Z,5.75
2022-11-09T02:30:54.759Z,5.80
2022-11-09T02:31:25.682Z,6.08
2022-11-09T02:31:56.647Z,5.87
2022-11-09T02:32:27.633Z,5.98
2022-11-09T02:32:58.782Z,5.94
2022-11-09T02:33:29.301Z,6.05
2022-11-09T02:33:59.769Z,5.86
2022-11-09T02:34:30.720Z,5.69
2022-11-09T02:35:01.738Z,6.02
2022-11-09T02:35:32.256Z,5.99
2022-11-09T02:36:03.359Z,5.64
2022-11-09T02:36:33.853Z,6.30
2022-11-09T02:37:04.794Z,6.12
2022-11-09T02:37:35.720Z,6.30
2022-11-09T02:38:06.641Z,5.80
2022-11-09T02:38:37.564Z,5.69
2022-11-09T02:39:08.701Z,5.86
2022-11-09T02:39:39.204Z,5.75
2022-11-09T02:40:10.196Z,5.56
2022-11-09T02:40:41.147Z,5.73
2022-11-09T02:41:12.100Z,5.65
2022-11-09T02:41:43.027Z,5.90
2022-11-09T02:42:19.907Z,5.23
2022-11-09T02:42:45.625Z,5.98
2022-11-09T02:43:15.086Z,5.71
2022-11-09T02:43:45.994Z,5.43
2022-11-09T02:44:16.918Z,5.50
2022-11-09T02:44:48.050Z,5.54
2022-11-09T02:45:18.542Z,5.46
2022-11-09T02:45:49.478Z,5.29
2022-11-09T02:46:20.405Z,5.41
2022-11-09T02:46:51.412Z,5.28
2022-11-09T02:47:21.908Z,5.35
2022-11-09T02:47:53.041Z,5.44
2022-11-09T02:48:23.565Z,5.41
2022-11-09T02:48:54.480Z,5.56
2022-11-09T02:49:25.410Z,5.26
2022-11-09T02:49:56.342Z,5.38
2022-11-09T02:50:27.367Z,5.39
2022-11-09T02:50:58.012Z,5.41
2022-11-09T02:51:28.526Z,5.54
2022-11-09T02:51:58.960Z,5.28
2022-11-09T02:52:29.897Z,5.35
2022-11-09T02:53:00.850Z,5.32
2022-11-09T02:53:31.772Z,5.61
2022-11-09T02:54:02.903Z,5.72
2022-11-09T02:54:33.406Z,5.44
2022-11-09T02:55:03.914Z,5.82
2022-11-09T02:55:34.844Z,5.41
2022-11-09T02:56:05.765Z,5.39
2022-11-09T02:56:36.771Z,5.48
2022-11-09T02:57:07.883Z,5.54
2022-11-09T02:57:38.409Z,5.68
2022-11-09T02:58:08.830Z,5.51
2022-11-09T02:58:39.738Z,5.50
2022-11-09T02:59:10.677Z,5.69
2022-11-09T02:59:41.613Z,5.69
2022-11-09T03:00:12.740Z,5.54
2022-11-09T03:00:43.414Z,5.10
2022-11-09T03:01:13.919Z,5.75
2022-11-09T03:01:44.471Z,5.71
2022-11-09T03:02:14.912Z,5.66
2022-11-09T03:02:45.846Z,5.53
2022-11-09T03:03:17.143Z,5.61
2022-11-09T03:03:47.379Z,5.41
2022-11-09T03:04:17.811Z,5.36
2022-11-09T03:04:48.735Z,5.71
2022-11-09T03:05:19.699Z,5.80
2022-11-09T03:05:50.737Z,5.33
2022-11-09T03:06:21.377Z,5.36
2022-11-09T03:06:52.031Z,5.56
2022-11-09T03:07:22.524Z,5.46
2022-11-09T03:07:53.449Z,5.30
2022-11-09T03:08:24.388Z,5.69
2022-11-09T03:08:55.301Z,5.39
2022-11-09T03:09:26.429Z,5.53
2022-11-09T03:09:57.004Z,5.47
2022-11-09T03:10:27.508Z,5.68
2022-11-09T03:10:58.067Z,5.48
2022-11-09T03:11:28.516Z,5.18
2022-11-09T03:11:59.435Z,5.46
2022-11-09T03:12:30.555Z,5.38
2022-11-09T03:13:01.052Z,5.36
2022-11-09T03:13:31.986Z,5.26
2022-11-09T03:14:02.923Z,5.15
2022-11-09T03:14:33.844Z,5.38
2022-11-09T03:15:04.780Z,5.36
2022-11-09T03:15:35.883Z,5.48
2022-11-09T03:16:06.389Z,5.39
2022-11-09T03:16:37.324Z,5.59
2022-11-09T03:17:08.333Z,5.61
2022-11-09T03:17:39.285Z,5.53
2022-11-09T03:18:10.276Z,5.57
2022-11-09T03:18:41.403Z,5.50
2022-11-09T03:19:11.908Z,5.62
2022-11-09T03:19:42.416Z,5.44
2022-11-09T03:20:12.924Z,5.53
2022-11-09T03:20:43.864Z,5.66
2022-11-09T03:21:14.877Z,5.36
2022-11-09T03:21:45.601Z,5.71
2022-11-09T03:22:16.115Z,5.41
2022-11-09T03:22:47.060Z,5.71
2022-11-09T03:23:18.478Z,5.35
2022-11-09T03:23:48.686Z,5.50
2022-11-09T03:24:19.649Z,5.44
2022-11-09T03:24:50.779Z,5.29
2022-11-09T03:25:21.272Z,5.30
2022-11-09T03:25:52.221Z,5.38
2022-11-09T03:26:23.183Z,5.05
2022-11-09T03:26:54.117Z,5.41
2022-11-09T03:27:25.132Z,5.69
2022-11-09T03:27:55.805Z,5.56
2022-11-09T03:28:26.360Z,5.36
2022-11-09T03:28:56.814Z,5.10
2022-11-09T03:29:27.733Z,5.56
2022-11-09T03:29:58.651Z,5.18
2022-11-09T03:30:29.647Z,5.51
2022-11-09T03:31:00.357Z,5.43
2022-11-09T03:31:30.854Z,5.32
2022-11-09T03:32:01.783Z,5.35
2022-11-09T03:32:32.785Z,5.38
2022-11-09T03:33:03.710Z,5.26
2022-11-09T03:33:34.617Z,5.54
2022-11-09T03:34:05.812Z,5.57
2022-11-09T03:34:36.313Z,5.46
2022-11-09T03:35:07.274Z,5.20
2022-11-09T03:35:38.214Z,5.36
2022-11-09T03:36:09.139Z,5.28
2022-11-09T03:36:40.178Z,5.48
2022-11-09T03:37:10.850Z,5.14
2022-11-09T03:37:41.464Z,5.36
2022-11-09T03:38:11.919Z,5.54
2022-11-09T03:38:42.854Z,5.25
2022-11-09T03:39:13.778Z,5.64
2022-11-09T03:39:44.777Z,5.38
2022-11-09T03:40:15.892Z,5.33
2022-11-09T03:40:46.423Z,5.53
2022-11-09T03:41:16.864Z,5.54
2022-11-09T03:41:47.898Z,5.51
2022-11-09T03:42:18.385Z,5.20
2022-11-09T03:42:49.315Z,5.38
2022-11-09T03:43:20.721Z,5.38
2022-11-09T03:43:50.967Z,5.36
2022-11-09T03:44:21.868Z,5.28
2022-11-09T03:44:52.798Z,5.48
2022-11-09T03:45:23.742Z,5.71
2022-11-09T03:45:54.677Z,5.30
2022-11-09T03:46:25.888Z,5.33
2022-11-09T03:46:56.391Z,5.25
2022-11-09T03:47:27.313Z,5.25
2022-11-09T03:47:58.245Z,5.29
2022-11-09T03:48:29.220Z,5.39
2022-11-09T03:49:00.163Z,5.35
2022-11-09T03:49:31.363Z,5.59
2022-11-09T03:50:01.853Z,5.25
2022-11-09T03:50:32.785Z,5.54
2022-11-09T03:51:03.754Z,5.61
2022-11-09T03:51:34.751Z,5.44
2022-11-09T03:52:05.239Z,5.64
2022-11-09T03:52:36.370Z,5.46
2022-11-09T03:53:06.860Z,5.73
2022-11-09T03:53:37.789Z,5.47
2022-11-09T03:54:08.744Z,5.39
2022-11-09T03:54:39.737Z,5.57
2022-11-09T03:55:10.661Z,5.32
2022-11-09T03:55:41.768Z,5.50
2022-11-09T03:56:12.240Z,5.18
2022-11-09T03:56:43.150Z,5.38
2022-11-09T03:57:14.143Z,5.32
2022-11-09T03:57:45.071Z,5.28
2022-11-09T03:58:16.077Z,5.15
2022-11-09T03:58:46.747Z,5.71
2022-11-09T03:59:17.231Z,5.15
2022-11-09T03:59:48.223Z,5.08
2022-11-09T04:00:18.667Z,5.50
2022-11-09T04:00:49.602Z,5.39
2022-11-09T04:01:20.689Z,5.17
2022-11-09T04:01:51.397Z,5.39
2022-11-09T04:02:21.920Z,5.15
2022-11-09T04:02:52.841Z,5.20
2022-11-09T04:03:23.780Z,5.38
2022-11-09T04:03:54.746Z,5.57
2022-11-09T04:04:25.679Z,5.53
2022-11-09T04:04:56.833Z,5.14
2022-11-09T04:05:27.359Z,5.51
2022-11-09T04:05:58.285Z,5.20
2022-11-09T04:06:29.247Z,5.07
2022-11-09T04:06:59.790Z,5.56
2022-11-09T04:07:30.335Z,5.20
2022-11-09T04:08:01.105Z,5.15
2022-11-09T04:08:31.620Z,5.54
2022-11-09T04:09:02.069Z,5.04
2022-11-09T04:09:32.990Z,5.32
2022-11-09T04:10:03.907Z,5.25
2022-11-09T04:10:34.845Z,5.21
2022-11-09T04:11:06.053Z,5.02
2022-11-09T04:11:36.562Z,5.12
2022-11-09T04:12:07.448Z,5.20
2022-11-09T04:12:38.463Z,5.33
2022-11-09T04:13:08.899Z,5.02
2022-11-09T04:13:39.829Z,5.30
2022-11-09T04:14:10.933Z,5.00
2022-11-09T04:14:41.439Z,5.51
2022-11-09T04:15:11.944Z,5.26
2022-11-09T04:15:42.451Z,5.25
2022-11-09T04:16:13.376Z,5.46
2022-11-09T04:16:44.306Z,5.15
2022-11-09T04:17:15.506Z,5.05
2022-11-09T04:17:45.998Z,5.32
2022-11-09T04:18:16.894Z,4.93
2022-11-09T04:18:47.818Z,5.18
2022-11-09T04:19:18.774Z,5.29
2022-11-09T04:19:49.772Z,5.32
2022-11-09T04:20:20.458Z,4.90
2022-11-09T04:20:50.982Z,5.46
2022-11-09T04:21:24.088Z,5.41
2022-11-09T04:21:52.841Z,5.25
2022-11-09T04:22:23.555Z,5.44
2022-11-09T04:22:54.545Z,5.33
2022-11-09T04:23:25.301Z,5.20
2022-11-09T04:23:55.794Z,5.26
2022-11-09T04:24:26.724Z,5.25
2022-11-09T04:24:57.644Z,5.14
2022-11-09T04:25:28.565Z,5.32
2022-11-09T04:25:59.568Z,5.46
2022-11-09T04:26:30.673Z,5.47
2022-11-09T04:27:01.174Z,5.21
2022-11-09T04:27:32.171Z,5.33
2022-11-09T04:28:03.146Z,5.39
2022-11-09T04:28:34.071Z,5.32
2022-11-09T04:29:04.998Z,5.47
2022-11-09T04:29:36.124Z,5.41
2022-11-09T04:30:06.630Z,5.48
2022-11-09T04:30:37.146Z,5.61
2022-11-09T04:31:07.574Z,5.32
2022-11-09T04:31:38.577Z,5.51
2022-11-09T04:32:09.504Z,5.50
2022-11-09T04:32:40.644Z,5.53
2022-11-09T04:33:11.117Z,5.48
2022-11-09T04:33:42.041Z,5.38
2022-11-09T04:34:13.036Z,5.71
2022-11-09T04:34:43.454Z,5.39
2022-11-09T04:35:14.355Z,5.98
2022-11-09T04:35:45.471Z,5.61
2022-11-09T04:36:15.966Z,5.69
2022-11-09T04:36:46.893Z,5.80
2022-11-09T04:37:17.795Z,5.71
2022-11-09T04:37:48.716Z,5.76
2022-11-09T04:38:19.693Z,6.01
2022-11-09T04:38:50.957Z,5.48
2022-11-09T04:39:21.525Z,5.76
2022-11-09T04:39:51.984Z,5.87
2022-11-09T04:40:22.999Z,5.53
2022-11-09T04:40:53.927Z,5.89
2022-11-09T04:41:24.853Z,5.72
2022-11-09T04:41:56.062Z,5.54
2022-11-09T04:42:26.577Z,5.43
2022-11-09T04:42:57.034Z,5.35
2022-11-09T04:43:28.103Z,5.30
2022-11-09T04:43:58.527Z,5.41
2022-11-09T04:44:29.502Z,5.48
2022-11-09T04:45:00.646Z,5.28
2022-11-09T04:45:31.151Z,5.47
2022-11-09T04:46:01.667Z,5.38
2022-11-09T04:46:32.590Z,5.17
2022-11-09T04:47:03.518Z,5.32
2022-11-09T04:47:34.439Z,5.28
2022-11-09T04:48:05.571Z,5.25
2022-11-09T04:48:36.075Z,5.39
2022-11-09T04:49:06.972Z,5.69
2022-11-09T04:49:37.891Z,5.90
2022-11-09T04:50:08.890Z,5.65
2022-11-09T04:50:39.815Z,5.80
2022-11-09T04:51:10.996Z,5.98
2022-11-09T04:51:41.516Z,6.39
2022-11-09T04:52:11.940Z,6.28
2022-11-09T04:52:42.851Z,6.26
2022-11-09T04:53:13.783Z,6.24
2022-11-09T04:53:44.758Z,6.07
2022-11-09T04:54:15.913Z,6.07
2022-11-09T04:54:46.400Z,6.60
2022-11-09T04:55:17.362Z,6.67
2022-11-09T04:55:48.306Z,6.49
2022-11-09T04:56:19.291Z,6.57
2022-11-09T04:56:50.309Z,6.46
2022-11-09T04:57:21.454Z,6.16
2022-11-09T04:57:51.963Z,6.27
2022-11-09T04:58:25.081Z,6.11
2022-11-09T04:58:53.485Z,6.67
2022-11-09T04:59:24.061Z,6.28
2022-11-09T04:59:54.578Z,6.54
2022-11-09T05:00:25.240Z,6.41
2022-11-09T05:00:55.743Z,6.42
2022-11-09T05:01:26.733Z,6.17
2022-11-09T05:01:57.762Z,6.35
2022-11-09T05:02:28.185Z,6.79
2022-11-09T05:02:59.090Z,6.54
2022-11-09T05:03:30.272Z,6.59
2022-11-09T05:04:00.924Z,6.77
2022-11-09T05:04:31.398Z,6.72
2022-11-09T05:05:02.337Z,6.82
2022-11-09T05:05:33.292Z,6.87
2022-11-09T05:06:04.227Z,6.56
2022-11-09T05:06:35.463Z,6.85
2022-11-09T05:07:05.840Z,6.81
2022-11-09T05:07:36.644Z,6.88
2022-11-09T05:08:07.563Z,6.81
2022-11-09T05:08:38.494Z,6.93
2022-11-09T05:09:09.526Z,6.82
2022-11-09T05:09:40.255Z,6.72
2022-11-09T05:10:10.741Z,6.92
2022-11-09T05:10:41.663Z,6.89
2022-11-09T05:11:12.608Z,6.67
2022-11-09T05:11:43.651Z,6.93
2022-11-09T05:12:14.156Z,6.95
2022-11-09T05:12:46.099Z,7.13
2022-11-09T05:13:15.315Z,6.59
2022-11-09T05:13:45.738Z,6.97
2022-11-09T05:14:16.784Z,6.93
2022-11-09T05:14:47.215Z,6.93
2022-11-09T05:15:18.135Z,6.87
2022-11-09T05:15:49.259Z,6.82
2022-11-09T05:16:19.805Z,6.66
2022-11-09T05:16:50.323Z,6.67
2022-11-09T05:17:21.335Z,6.59
2022-11-09T05:17:52.280Z,6.54
2022-11-09T05:18:23.186Z,6.41
2022-11-09T05:18:54.296Z,6.16
2022-11-09T05:19:24.770Z,5.97
2022-11-09T05:19:56.134Z,6.20
2022-11-09T05:20:26.212Z,5.84
2022-11-09T05:20:56.755Z,5.97
2022-11-09T05:21:27.222Z,5.90
2022-11-09T05:21:58.333Z,5.87
2022-11-09T05:22:28.830Z,6.04
2022-11-09T05:22:59.770Z,5.87
2022-11-09T05:23:30.789Z,5.72
2022-11-09T05:24:01.477Z,5.48
2022-11-09T05:24:32.236Z,5.44
2022-11-09T05:25:03.029Z,5.44
2022-11-09T05:25:33.542Z,5.54
2022-11-09T05:26:04.032Z,5.51
2022-11-09T05:26:35.026Z,5.71
2022-11-09T05:27:05.525Z,6.02
2022-11-09T05:27:36.522Z,5.87
2022-11-09T05:28:09.216Z,6.01
2022-11-09T05:28:37.832Z,5.76
2022-11-09T05:29:08.767Z,6.08
2022-11-09T05:29:39.862Z,6.04
2022-11-09T05:30:10.280Z,6.28
2022-11-09T05:30:41.211Z,6.42
2022-11-09T05:31:12.339Z,6.39
2022-11-09T05:31:45.468Z,6.35
2022-11-09T05:32:14.845Z,6.39
2022-11-09T05:32:44.231Z,6.60
2022-11-09T05:33:15.164Z,6.57
2022-11-09T05:33:46.290Z,6.62
2022-11-09T05:34:16.781Z,6.72
2022-11-09T05:34:47.774Z,6.41
2022-11-09T05:35:18.257Z,6.70
2022-11-09T05:35:49.247Z,6.99
2022-11-09T05:36:20.169Z,6.79
2022-11-09T05:36:51.363Z,6.93
2022-11-09T05:37:21.845Z,6.64
2022-11-09T05:37:52.770Z,6.88
2022-11-09T05:38:23.695Z,6.97
2022-11-09T05:38:54.692Z,6.96
2022-11-09T05:39:25.698Z,6.89
2022-11-09T05:39:56.392Z,7.13
2022-11-09T05:40:26.830Z,7.00
2022-11-09T05:40:57.787Z,7.24
2022-11-09T05:41:28.703Z,7.03
2022-11-09T05:41:59.754Z,6.74
2022-11-09T05:42:30.173Z,6.77
2022-11-09T05:43:01.396Z,6.60
2022-11-09T05:43:31.899Z,6.42
2022-11-09T05:44:02.834Z,6.31
2022-11-09T05:44:33.819Z,6.39
2022-11-09T05:45:35.596Z,6.14
2022-11-09T05:45:42.689Z,6.12
2022-11-09T05:46:07.001Z,6.07
2022-11-09T05:46:37.508Z,6.11
2022-11-09T05:47:08.420Z,6.04
2022-11-09T05:47:39.421Z,5.94
2022-11-09T05:48:09.955Z,6.24
2022-11-09T05:48:40.577Z,6.02
2022-11-09T05:49:11.069Z,6.42
2022-11-09T05:49:41.549Z,6.09
2022-11-09T05:50:12.605Z,6.54
2022-11-09T05:50:43.025Z,6.41
2022-11-09T05:51:13.982Z,6.38
2022-11-09T05:51:45.110Z,6.57
2022-11-09T05:52:15.606Z,7.28
2022-11-09T05:52:46.485Z,7.33
2022-11-09T05:53:17.620Z,7.69
2022-11-09T05:53:48.279Z,7.87
2022-11-09T05:54:19.224Z,8.18
2022-11-09T05:54:50.345Z,8.05
2022-11-09T05:55:20.870Z,8.15
2022-11-09T05:55:51.371Z,8.36
2022-11-09T05:56:21.899Z,8.28
2022-11-09T05:56:52.406Z,8.26
2022-11-09T05:57:22.935Z,8.09
2022-11-09T05:57:53.641Z,7.87
2022-11-09T05:58:24.160Z,8.01
2022-11-09T05:58:55.121Z,8.06
2022-11-09T05:59:26.065Z,7.63
2022-11-09T05:59:57.068Z,7.63
2022-11-09T06:00:28.059Z,7.36
2022-11-09T06:00:58.766Z,7.38
2022-11-09T06:01:29.252Z,7.32
2022-11-09T06:01:59.828Z,7.80
2022-11-09T06:02:30.316Z,7.38
2022-11-09T06:03:01.004Z,6.78
2022-11-09T06:03:31.876Z,7.28
2022-11-09T06:04:02.978Z,7.33
2022-11-09T06:04:33.447Z,7.05
2022-11-09T06:05:04.385Z,7.11
2022-11-09T06:05:35.324Z,6.85
2022-11-09T06:06:08.591Z,7.20
2022-11-09T06:06:36.952Z,6.79
2022-11-09T06:07:07.768Z,6.96
2022-11-09T06:07:38.041Z,7.15
2022-11-09T06:08:08.996Z,6.75
2022-11-09T06:08:39.960Z,7.02
2022-11-09T06:09:10.916Z,6.74
2022-11-09T06:09:41.783Z,6.85
2022-11-09T06:10:12.917Z,6.70
2022-11-09T06:10:43.361Z,6.81
2022-11-09T06:11:21.530Z,6.51
2022-11-09T06:11:45.189Z,6.46
2022-11-09T06:12:16.143Z,6.62
2022-11-09T06:12:47.303Z,6.36
2022-11-09T06:13:18.150Z,6.46
2022-11-09T06:13:48.675Z,6.45
2022-11-09T06:14:19.627Z,6.52
2022-11-09T06:14:50.543Z,6.51
2022-11-09T06:15:21.511Z,6.75
2022-11-09T06:15:52.681Z,6.67
2022-11-09T06:16:23.065Z,6.82
2022-11-09T06:16:53.942Z,7.02
2022-11-09T06:17:24.807Z,6.46
2022-11-09T06:17:55.682Z,6.75
2022-11-09T06:18:26.698Z,6.60
2022-11-09T06:18:57.366Z,6.57
2022-11-09T06:19:27.805Z,6.93
2022-11-09T06:19:58.695Z,6.57
2022-11-09T06:20:29.585Z,6.42
2022-11-09T06:21:00.541Z,6.96
2022-11-09T06:21:31.417Z,6.59
2022-11-09T06:22:02.563Z,6.56
2022-11-09T06:22:33.032Z,6.87
2022-11-09T06:23:04.524Z,6.60
2022-11-09T06:23:34.752Z,6.78
2022-11-09T06:24:05.643Z,6.78
2022-11-09T06:24:36.572Z,6.97
2022-11-09T06:25:07.625Z,6.56
2022-11-09T06:25:38.119Z,6.88
2022-11-09T06:26:08.599Z,7.25
2022-11-09T06:26:39.375Z,7.06
2022-11-09T06:27:10.259Z,6.79
2022-11-09T06:27:41.212Z,7.06
2022-11-09T06:28:12.260Z,6.89
2022-11-09T06:28:42.705Z,6.62
2022-11-09T06:29:13.576Z,7.17
2022-11-09T06:29:44.517Z,6.85
2022-11-09T06:30:15.394Z,7.15
2022-11-09T06:30:46.391Z,7.32
2022-11-09T06:31:17.530Z,7.03
2022-11-09T06:31:47.899Z,7.03
2022-11-09T06:32:18.868Z,7.15
2022-11-09T06:32:49.740Z,6.87
2022-11-09T06:33:21.089Z,7.18
2022-11-09T06:33:51.604Z,7.31
2022-11-09T06:34:22.747Z,7.14
2022-11-09T06:34:53.220Z,7.40
2022-11-09T06:35:24.143Z,7.07
2022-11-09T06:35:56.570Z,7.32
2022-11-09T06:36:25.751Z,7.02
2022-11-09T06:36:56.197Z,7.15
2022-11-09T06:37:27.327Z,7.20
2022-11-09T06:37:57.811Z,7.54
2022-11-09T06:38:28.796Z,7.32
2022-11-09T06:38:59.679Z,7.61
2022-11-09T06:39:30.680Z,7.57
2022-11-09T06:40:01.607Z,7.72
2022-11-09T06:40:32.782Z,7.50
2022-11-09T06:41:03.250Z,7.61
2022-11-09T06:41:34.258Z,7.79
2022-11-09T06:42:04.848Z,7.48
2022-11-09T06:42:35.330Z,7.57
2022-11-09T06:43:06.255Z,7.57
2022-11-09T06:43:37.394Z,7.87
2022-11-09T06:44:07.847Z,7.70
2022-11-09T06:44:38.747Z,7.25
2022-11-09T06:45:09.636Z,7.70
2022-11-09T06:45:40.565Z,7.57
2022-11-09T06:46:11.518Z,7.72
2022-11-09T06:46:42.648Z,7.53
2022-11-09T06:47:13.070Z,7.76
2022-11-09T06:47:44.010Z,7.85
2022-11-09T06:48:14.896Z,7.45
2022-11-09T06:48:48.385Z,7.72
2022-11-09T06:49:16.933Z,7.66
2022-11-09T06:49:47.411Z,7.69
2022-11-09T06:50:18.298Z,7.83
2022-11-09T06:50:49.167Z,7.79
2022-11-09T06:51:20.132Z,7.77